Zova, Israel
Current Conditions -  °F | °C
As of 9:50 PM on Friday 24 Oct 2014 (Local Time) from LLBG Reporting Station
Clear Clear  
Wind Chill: 70°   Ceiling: Unl
Heat Index: 70°   Visibility: 6mi
Dew Point: 54°   Wind: 5mph
Humidity: 56%   Direction: 110°ESE
Pressure: 30.03"   Gusts: NA
Location:  31.78°N, 35.12°E
Report Text: LLBG 241850Z 11004KT CAVOK 21/12 Q1017 NOSIG
Loading
Personal Weather Stations






























Interactive Weather Map
Tropical Storm Tracking
New forecast layout! Learn more

10-Day Weather Forecast

Advertisements
Track Severe Weather on mobile